sensor_id;sensor_type;location;lat;lon;timestamp;pressure;altitude;pressure_sealevel;temperature;humidity
43071;BME280;36278;47.952;21.714;2023-01-31T00:01:16;99802.47;;;1.25;100.00
43071;BME280;36278;47.952;21.714;2023-01-31T00:03:42;99806.34;;;1.17;100.00
43071;BME280;36278;47.952;21.714;2023-01-31T00:08:42;99798.09;;;1.07;100.00
43071;BME280;36278;47.952;21.714;2023-01-31T00:11:08;99799.41;;;0.97;100.00
43071;BME280;36278;47.952;21.714;2023-01-31T00:13:34;99798.78;;;0.92;100.00
43071;BME280;36278;47.952;21.714;2023-01-31T00:15:59;99798.53;;;0.77;100.00
43071;BME280;36278;47.952;21.714;2023-01-31T00:18:25;99800.31;;;0.77;100.00
43071;BME280;36278;47.952;21.714;2023-01-31T00:20:50;99797.13;;;0.70;100.00
43071;BME280;36278;47.952;21.714;2023-01-31T00:23:16;99795.59;;;0.65;100.00
43071;BME280;36278;47.952;21.714;2023-01-31T00:25:41;99813.91;;;0.63;100.00
43071;BME280;36278;47.952;21.714;2023-01-31T00:28:07;99812.22;;;0.62;100.00
43071;BME280;36278;47.952;21.714;2023-01-31T00:30:33;99816.66;;;0.60;100.00
43071;BME280;36278;47.952;21.714;2023-01-31T00:32:59;99821.97;;;0.59;100.00
43071;BME280;36278;47.952;21.714;2023-01-31T00:35:24;99799.22;;;0.42;100.00
43071;BME280;36278;47.952;21.714;2023-01-31T00:37:50;99829.13;;;0.53;100.00
43071;BME280;36278;47.952;21.714;2023-01-31T00:40:15;99832.72;;;0.51;100.00
43071;BME280;36278;47.952;21.714;2023-01-31T00:42:41;99829.13;;;0.53;100.00
43071;BME280;36278;47.952;21.714;2023-01-31T00:45:08;99834.56;;;0.47;100.00
43071;BME280;36278;47.952;21.714;2023-01-31T00:47:33;99829.88;;;0.55;100.00
43071;BME280;36278;47.952;21.714;2023-01-31T00:49:59;99822.72;;;0.61;100.00
43071;BME280;36278;47.952;21.714;2023-01-31T00:52:24;99817.66;;;0.58;100.00
43071;BME280;36278;47.952;21.714;2023-01-31T00:54:50;99829.88;;;0.55;100.00
43071;BME280;36278;47.952;21.714;2023-01-31T00:57:15;99834.31;;;0.53;100.00
43071;BME280;36278;47.952;21.714;2023-01-31T00:59:41;99831.78;;;0.52;100.00
43071;BME280;36278;47.952;21.714;2023-01-31T01:02:06;99823.91;;;0.53;100.00
43071;BME280;36278;47.952;21.714;2023-01-31T01:04:32;99818.00;;;0.50;100.00
43071;BME280;36278;47.952;21.714;2023-01-31T01:06:57;99819.09;;;0.44;100.00
43071;BME280;36278;47.952;21.714;2023-01-31T01:09:23;99818.38;;;0.41;100.00
43071;BME280;36278;47.952;21.714;2023-01-31T01:11:49;99825.53;;;0.36;100.00
43071;BME280;36278;47.952;21.714;2023-01-31T01:14:15;99822.00;;;0.37;100.00
43071;BME280;36278;47.952;21.714;2023-01-31T01:16:40;99830.59;;;0.39;100.00
43071;BME280;36278;47.952;21.714;2023-01-31T01:19:15;99829.81;;;0.37;100.00
43071;BME280;36278;47.952;21.714;2023-01-31T01:21:41;99840.09;;;0.40;100.00
43071;BME280;36278;47.952;21.714;2023-01-31T01:24:17;99836.78;;;0.36;100.00
43071;BME280;36278;47.952;21.714;2023-01-31T01:26:43;99836.66;;;0.39;100.00
43071;BME280;36278;47.952;21.714;2023-01-31T01:29:10;99838.56;;;0.36;100.00
43071;BME280;36278;47.952;21.714;2023-01-31T01:31:38;99840.84;;;0.43;100.00
43071;BME280;36278;47.952;21.714;2023-01-31T01:34:14;99838.25;;;0.43;100.00
43071;BME280;36278;47.952;21.714;2023-01-31T01:36:40;99836.78;;;0.56;100.00
43071;BME280;36278;47.952;21.714;2023-01-31T01:39:07;99834.06;;;0.60;100.00
43071;BME280;36278;47.952;21.714;2023-01-31T01:41:33;99842.81;;;0.59;100.00
43071;BME280;36278;47.952;21.714;2023-01-31T01:44:01;99863.66;;;0.59;100.00
43071;BME280;36278;47.952;21.714;2023-01-31T01:46:35;99852.38;;;0.58;100.00
43071;BME280;36278;47.952;21.714;2023-01-31T01:51:35;99851.16;;;0.67;100.00
43071;BME280;36278;47.952;21.714;2023-01-31T01:54:04;99846.38;;;0.76;100.00
43071;BME280;36278;47.952;21.714;2023-01-31T01:56:35;99846.25;;;0.79;100.00
43071;BME280;36278;47.952;21.714;2023-01-31T02:01:39;99820.09;;;0.81;100.00
43071;BME280;36278;47.952;21.714;2023-01-31T02:04:08;99815.19;;;0.94;100.00
43071;BME280;36278;47.952;21.714;2023-01-31T02:06:35;99821.41;;;0.91;100.00
43071;BME280;36278;47.952;21.714;2023-01-31T02:09:02;99833.72;;;0.88;100.00
43071;BME280;36278;47.952;21.714;2023-01-31T02:11:30;99839.78;;;0.88;100.00
43071;BME280;36278;47.952;21.714;2023-01-31T02:14:09;99850.50;;;0.82;100.00
43071;BME280;36278;47.952;21.714;2023-01-31T02:16:35;99856.75;;;0.78;100.00
43071;BME280;36278;47.952;21.714;2023-01-31T02:19:03;99853.88;;;0.84;100.00
43071;BME280;36278;47.952;21.714;2023-01-31T02:21:55;99851.91;;;0.89;100.00
43071;BME280;36278;47.952;21.714;2023-01-31T02:27:33;99849.25;;;0.91;100.00
43071;BME280;36278;47.952;21.714;2023-01-31T02:33:16;99846.97;;;0.83;100.00
43071;BME280;36278;47.952;21.714;2023-01-31T02:36:11;99829.69;;;0.80;100.00
43071;BME280;36278;47.952;21.714;2023-01-31T02:41:42;99847.56;;;0.90;100.00
43071;BME280;36278;47.952;21.714;2023-01-31T02:44:58;99845.91;;;0.87;100.00
43071;BME280;36278;47.952;21.714;2023-01-31T02:47:56;99858.00;;;0.90;100.00
43071;BME280;36278;47.952;21.714;2023-01-31T02:50:30;99866.00;;;0.85;100.00
43071;BME280;36278;47.952;21.714;2023-01-31T02:55:46;99866.78;;;0.87;100.00
43071;BME280;36278;47.952;21.714;2023-01-31T02:58:36;99852.03;;;0.86;100.00
43071;BME280;36278;47.952;21.714;2023-01-31T03:01:04;99861.56;;;0.87;100.00
43071;BME280;36278;47.952;21.714;2023-01-31T03:03:34;99840.19;;;0.79;100.00
43071;BME280;36278;47.952;21.714;2023-01-31T03:09:11;99858.16;;;0.65;100.00
43071;BME280;36278;47.952;21.714;2023-01-31T03:18:07;99871.00;;;0.69;100.00
43071;BME280;36278;47.952;21.714;2023-01-31T03:20:43;99876.16;;;0.50;100.00
43071;BME280;36278;47.952;21.714;2023-01-31T03:23:17;99873.97;;;0.40;100.00
43071;BME280;36278;47.952;21.714;2023-01-31T03:25:45;99880.31;;;0.34;100.00
43071;BME280;36278;47.952;21.714;2023-01-31T03:28:16;99888.13;;;0.34;100.00
43071;BME280;36278;47.952;21.714;2023-01-31T03:31:02;99884.84;;;0.29;100.00
43071;BME280;36278;47.952;21.714;2023-01-31T03:33:35;99894.47;;;0.27;100.00
43071;BME280;36278;47.952;21.714;2023-01-31T03:38:47;99899.81;;;0.24;100.00
43071;BME280;36278;47.952;21.714;2023-01-31T03:41:26;99896.41;;;0.22;100.00
43071;BME280;36278;47.952;21.714;2023-01-31T03:44:13;99902.16;;;0.30;100.00
43071;BME280;36278;47.952;21.714;2023-01-31T03:46:45;99899.19;;;0.39;100.00
43071;BME280;36278;47.952;21.714;2023-01-31T03:49:14;99886.13;;;0.41;100.00
43071;BME280;36278;47.952;21.714;2023-01-31T03:51:44;99899.38;;;0.35;100.00
43071;BME280;36278;47.952;21.714;2023-01-31T03:54:17;99908.91;;;0.36;100.00
43071;BME280;36278;47.952;21.714;2023-01-31T03:56:47;99905.06;;;0.22;100.00
43071;BME280;36278;47.952;21.714;2023-01-31T03:59:20;99914.47;;;0.26;100.00
43071;BME280;36278;47.952;21.714;2023-01-31T04:01:48;99915.41;;;0.25;100.00
43071;BME280;36278;47.952;21.714;2023-01-31T04:06:42;99928.81;;;0.37;100.00
43071;BME280;36278;47.952;21.714;2023-01-31T04:09:07;99912.88;;;0.22;100.00
43071;BME280;36278;47.952;21.714;2023-01-31T04:11:40;99935.19;;;0.30;100.00
43071;BME280;36278;47.952;21.714;2023-01-31T04:14:07;99935.25;;;0.28;100.00
43071;BME280;36278;47.952;21.714;2023-01-31T04:16:33;99935.41;;;0.23;100.00
43071;BME280;36278;47.952;21.714;2023-01-31T04:18:59;99932.50;;;0.31;100.00
43071;BME280;36278;47.952;21.714;2023-01-31T04:21:24;99934.56;;;0.23;100.00
43071;BME280;36278;47.952;21.714;2023-01-31T04:23:50;99938.47;;;0.13;100.00
43071;BME280;36278;47.952;21.714;2023-01-31T04:26:15;99937.78;;;0.08;100.00
43071;BME280;36278;47.952;21.714;2023-01-31T04:28:41;99949.00;;;0.10;100.00
43071;BME280;36278;47.952;21.714;2023-01-31T04:31:07;99943.66;;;0.13;100.00
43071;BME280;36278;47.952;21.714;2023-01-31T04:33:32;99944.22;;;0.21;100.00
43071;BME280;36278;47.952;21.714;2023-01-31T04:35:58;99942.38;;;0.23;100.00
43071;BME280;36278;47.952;21.714;2023-01-31T04:38:23;99946.81;;;0.21;100.00
43071;BME280;36278;47.952;21.714;2023-01-31T04:40:49;99957.47;;;0.15;100.00
43071;BME280;36278;47.952;21.714;2023-01-31T04:43:15;99955.78;;;0.14;100.00
43071;BME280;36278;47.952;21.714;2023-01-31T04:45:41;99967.59;;;0.22;100.00
43071;BME280;36278;47.952;21.714;2023-01-31T04:48:06;99964.69;;;0.30;100.00
43071;BME280;36278;47.952;21.714;2023-01-31T04:50:32;99966.22;;;0.36;100.00
43071;BME280;36278;47.952;21.714;2023-01-31T04:52:57;99976.50;;;0.39;100.00
43071;BME280;36278;47.952;21.714;2023-01-31T04:55:22;99978.19;;;0.40;100.00
43071;BME280;36278;47.952;21.714;2023-01-31T04:57:48;99985.91;;;0.43;100.00
43071;BME280;36278;47.952;21.714;2023-01-31T05:00:14;99983.25;;;0.44;100.00
43071;BME280;36278;47.952;21.714;2023-01-31T05:02:39;99994.63;;;0.42;100.00
43071;BME280;36278;47.952;21.714;2023-01-31T05:05:05;99986.81;;;0.42;100.00
43071;BME280;36278;47.952;21.714;2023-01-31T05:07:31;99985.84;;;0.44;100.00
43071;BME280;36278;47.952;21.714;2023-01-31T05:09:56;99984.16;;;0.43;100.00
43071;BME280;36278;47.952;21.714;2023-01-31T05:12:22;99994.03;;;0.35;100.00
43071;BME280;36278;47.952;21.714;2023-01-31T05:14:47;99985.84;;;0.44;100.00
43071;BME280;36278;47.952;21.714;2023-01-31T05:17:13;99975.28;;;0.47;100.00
43071;BME280;36278;47.952;21.714;2023-01-31T05:19:38;99985.13;;;0.41;100.00
43071;BME280;36278;47.952;21.714;2023-01-31T05:22:04;99985.13;;;0.41;100.00
43071;BME280;36278;47.952;21.714;2023-01-31T05:24:31;99988.38;;;0.46;100.00
43071;BME280;36278;47.952;21.714;2023-01-31T05:26:58;99983.38;;;0.41;100.00
43071;BME280;36278;47.952;21.714;2023-01-31T05:29:26;99993.13;;;0.36;100.00
43071;BME280;36278;47.952;21.714;2023-01-31T05:31:54;100001.28;;;0.27;100.00
43071;BME280;36278;47.952;21.714;2023-01-31T05:34:20;99991.72;;;0.27;100.00
43071;BME280;36278;47.952;21.714;2023-01-31T05:36:45;99995.00;;;0.33;100.00
43071;BME280;36278;47.952;21.714;2023-01-31T05:39:11;100007.78;;;0.39;100.00
43071;BME280;36278;47.952;21.714;2023-01-31T05:41:36;100009.97;;;0.49;100.00
43071;BME280;36278;47.952;21.714;2023-01-31T05:44:02;100017.81;;;0.48;100.00
43071;BME280;36278;47.952;21.714;2023-01-31T05:46:28;100008.09;;;0.53;100.00
43071;BME280;36278;47.952;21.714;2023-01-31T05:48:54;100023.97;;;0.69;100.00
43071;BME280;36278;47.952;21.714;2023-01-31T05:51:19;100016.84;;;0.72;100.00
43071;BME280;36278;47.952;21.714;2023-01-31T05:53:44;100018.38;;;0.78;100.00
43071;BME280;36278;47.952;21.714;2023-01-31T05:56:11;100020.22;;;0.76;100.00
43071;BME280;36278;47.952;21.714;2023-01-31T05:58:38;100018.75;;;0.69;100.00
43071;BME280;36278;47.952;21.714;2023-01-31T06:01:03;100030.69;;;0.74;100.00
43071;BME280;36278;47.952;21.714;2023-01-31T06:03:29;100022.56;;;0.82;100.00
43071;BME280;36278;47.952;21.714;2023-01-31T06:05:54;100028.25;;;0.70;100.00
43071;BME280;36278;47.952;21.714;2023-01-31T06:08:20;100031.47;;;0.76;100.00
43071;BME280;36278;47.952;21.714;2023-01-31T06:10:45;100022.50;;;0.83;100.00
43071;BME280;36278;47.952;21.714;2023-01-31T06:13:10;100026.59;;;0.89;100.00
43071;BME280;36278;47.952;21.714;2023-01-31T06:15:36;100025.44;;;0.96;100.00
43071;BME280;36278;47.952;21.714;2023-01-31T06:18:02;100034.44;;;0.89;100.00
43071;BME280;36278;47.952;21.714;2023-01-31T06:20:28;100034.97;;;0.97;100.00
43071;BME280;36278;47.952;21.714;2023-01-31T06:22:53;100051.97;;;1.07;100.00
43071;BME280;36278;47.952;21.714;2023-01-31T06:25:19;100054.44;;;1.10;99.84
43071;BME280;36278;47.952;21.714;2023-01-31T06:27:44;100065.41;;;1.19;99.92
43071;BME280;36278;47.952;21.714;2023-01-31T06:30:10;100071.78;;;1.11;99.97
43071;BME280;36278;47.952;21.714;2023-01-31T06:32:36;100072.28;;;0.99;100.00
43071;BME280;36278;47.952;21.714;2023-01-31T06:35:04;100074.69;;;1.04;100.00
43071;BME280;36278;47.952;21.714;2023-01-31T06:37:30;100078.69;;;1.12;100.00
43071;BME280;36278;47.952;21.714;2023-01-31T06:39:55;100086.94;;;1.24;100.00
43071;BME280;36278;47.952;21.714;2023-01-31T06:42:21;100090.09;;;1.32;99.99
43071;BME280;36278;47.952;21.714;2023-01-31T06:44:46;100096.94;;;1.34;98.93
43071;BME280;36278;47.952;21.714;2023-01-31T06:47:12;100103.84;;;1.35;99.64
43071;BME280;36278;47.952;21.714;2023-01-31T06:49:38;100108.16;;;1.36;99.02
43071;BME280;36278;47.952;21.714;2023-01-31T06:52:04;100103.59;;;1.42;99.51
43071;BME280;36278;47.952;21.714;2023-01-31T06:54:30;100112.28;;;1.42;98.93
43071;BME280;36278;47.952;21.714;2023-01-31T06:56:55;100104.63;;;1.37;99.21
43071;BME280;36278;47.952;21.714;2023-01-31T06:59:21;100114.56;;;1.50;99.55
43071;BME280;36278;47.952;21.714;2023-01-31T07:01:46;100129.38;;;1.49;98.72
43071;BME280;36278;47.952;21.714;2023-01-31T07:04:12;100132.53;;;1.57;99.18
43071;BME280;36278;47.952;21.714;2023-01-31T07:06:37;100123.25;;;1.50;98.06
43071;BME280;36278;47.952;21.714;2023-01-31T07:09:03;100131.84;;;1.52;98.52
43071;BME280;36278;47.952;21.714;2023-01-31T07:11:28;100147.03;;;1.64;98.14
43071;BME280;36278;47.952;21.714;2023-01-31T07:13:54;100157.56;;;1.61;98.35
43071;BME280;36278;47.952;21.714;2023-01-31T07:16:20;100157.19;;;1.50;98.93
43071;BME280;36278;47.952;21.714;2023-01-31T07:18:47;100159.63;;;1.55;99.52
43071;BME280;36278;47.952;21.714;2023-01-31T07:21:12;100152.88;;;1.69;99.79
43071;BME280;36278;47.952;21.714;2023-01-31T07:23:37;100153.81;;;1.89;97.63
43071;BME280;36278;47.952;21.714;2023-01-31T07:26:04;100144.63;;;1.80;95.94
43071;BME280;36278;47.952;21.714;2023-01-31T07:28:30;100156.09;;;1.76;97.69
43071;BME280;36278;47.952;21.714;2023-01-31T07:31:03;100162.47;;;1.69;97.66
43071;BME280;36278;47.952;21.714;2023-01-31T07:33:29;100164.25;;;1.68;98.89
43071;BME280;36278;47.952;21.714;2023-01-31T07:35:54;100165.63;;;1.77;98.60
43071;BME280;36278;47.952;21.714;2023-01-31T07:38:19;100161.38;;;1.95;96.94
43071;BME280;36278;47.952;21.714;2023-01-31T07:40:45;100169.28;;;1.93;95.88
43071;BME280;36278;47.952;21.714;2023-01-31T07:43:10;100172.88;;;1.91;96.57
43071;BME280;36278;47.952;21.714;2023-01-31T07:45:37;100169.63;;;2.06;96.81
43071;BME280;36278;47.952;21.714;2023-01-31T07:48:03;100184.56;;;2.03;95.76
43071;BME280;36278;47.952;21.714;2023-01-31T07:50:30;100182.22;;;2.17;96.09
43071;BME280;36278;47.952;21.714;2023-01-31T07:52:58;100188.94;;;2.22;94.54
43071;BME280;36278;47.952;21.714;2023-01-31T07:55:25;100187.84;;;2.28;95.65
43071;BME280;36278;47.952;21.714;2023-01-31T07:57:50;100188.28;;;2.38;95.21
43071;BME280;36278;47.952;21.714;2023-01-31T08:00:16;100191.81;;;2.37;94.36
43071;BME280;36278;47.952;21.714;2023-01-31T08:03:00;100197.66;;;2.42;94.44
43071;BME280;36278;47.952;21.714;2023-01-31T08:05:45;100192.31;;;2.45;94.13
43071;BME280;36278;47.952;21.714;2023-01-31T08:08:11;100205.41;;;2.64;94.58
43071;BME280;36278;47.952;21.714;2023-01-31T08:10:37;100196.31;;;2.72;91.80
43071;BME280;36278;47.952;21.714;2023-01-31T08:13:03;100202.19;;;2.77;92.59
43071;BME280;36278;47.952;21.714;2023-01-31T08:15:31;100204.97;;;2.93;90.49
43071;BME280;36278;47.952;21.714;2023-01-31T08:17:56;100207.00;;;2.87;89.29
43071;BME280;36278;47.952;21.714;2023-01-31T08:20:22;100205.81;;;2.94;91.02
43071;BME280;36278;47.952;21.714;2023-01-31T08:22:48;100204.44;;;3.04;89.59
43071;BME280;36278;47.952;21.714;2023-01-31T08:25:13;100213.06;;;3.06;89.14
43071;BME280;36278;47.952;21.714;2023-01-31T08:27:39;100206.63;;;3.13;88.25
43071;BME280;36278;47.952;21.714;2023-01-31T08:30:05;100226.91;;;3.08;88.41
43071;BME280;36278;47.952;21.714;2023-01-31T08:32:31;100212.81;;;2.93;90.75
43071;BME280;36278;47.952;21.714;2023-01-31T08:34:56;100221.69;;;3.08;88.53
43071;BME280;36278;47.952;21.714;2023-01-31T08:37:22;100220.06;;;3.05;87.72
43071;BME280;36278;47.952;21.714;2023-01-31T08:39:47;100225.31;;;3.05;88.49
43071;BME280;36278;47.952;21.714;2023-01-31T08:42:13;100230.38;;;2.71;91.50
43071;BME280;36278;47.952;21.714;2023-01-31T08:44:38;100237.03;;;2.97;90.42
43071;BME280;36278;47.952;21.714;2023-01-31T08:47:04;100236.28;;;3.14;89.23
43071;BME280;36278;47.952;21.714;2023-01-31T08:49:30;100233.28;;;3.21;88.25
43071;BME280;36278;47.952;21.714;2023-01-31T08:51:57;100240.06;;;3.25;88.18
43071;BME280;36278;47.952;21.714;2023-01-31T08:54:23;100246.97;;;3.28;88.29
43071;BME280;36278;47.952;21.714;2023-01-31T08:56:48;100242.16;;;3.19;89.04
43071;BME280;36278;47.952;21.714;2023-01-31T08:59:14;100239.47;;;3.20;88.41
43071;BME280;36278;47.952;21.714;2023-01-31T09:01:39;100248.59;;;3.12;90.83
43071;BME280;36278;47.952;21.714;2023-01-31T09:04:06;100258.22;;;3.11;90.74
43071;BME280;36278;47.952;21.714;2023-01-31T09:06:33;100266.13;;;3.28;89.67
43071;BME280;36278;47.952;21.714;2023-01-31T09:08:58;100271.56;;;3.05;91.50
43071;BME280;36278;47.952;21.714;2023-01-31T09:11:26;100265.22;;;2.71;93.43
43071;BME280;36278;47.952;21.714;2023-01-31T09:13:54;100267.28;;;2.84;92.35
43071;BME280;36278;47.952;21.714;2023-01-31T09:16:19;100272.50;;;3.04;92.50
43071;BME280;36278;47.952;21.714;2023-01-31T09:18:45;100270.13;;;2.98;90.73
43071;BME280;36278;47.952;21.714;2023-01-31T09:21:16;100269.63;;;2.90;92.17
43071;BME280;36278;47.952;21.714;2023-01-31T09:23:43;100267.25;;;2.85;93.55
43071;BME280;36278;47.952;21.714;2023-01-31T09:26:10;100267.53;;;2.98;92.56
43071;BME280;36278;47.952;21.714;2023-01-31T09:28:36;100266.69;;;2.97;92.30
43071;BME280;36278;47.952;21.714;2023-01-31T09:31:06;100270.38;;;3.12;91.51
43071;BME280;36278;47.952;21.714;2023-01-31T09:33:33;100273.13;;;3.28;91.57
43071;BME280;36278;47.952;21.714;2023-01-31T09:36:02;100276.53;;;3.30;89.71
43071;BME280;36278;47.952;21.714;2023-01-31T09:38:28;100283.25;;;3.35;89.71
43071;BME280;36278;47.952;21.714;2023-01-31T09:40:55;100274.03;;;3.46;89.59
43071;BME280;36278;47.952;21.714;2023-01-31T09:43:25;100279.00;;;3.33;89.49
43071;BME280;36278;47.952;21.714;2023-01-31T09:45:56;100278.06;;;3.53;89.72
43071;BME280;36278;47.952;21.714;2023-01-31T09:48:28;100267.63;;;3.70;88.75
43071;BME280;36278;47.952;21.714;2023-01-31T09:50:58;100281.06;;;3.81;87.95
43071;BME280;36278;47.952;21.714;2023-01-31T09:53:29;100286.09;;;3.86;87.49
43071;BME280;36278;47.952;21.714;2023-01-31T09:58:54;100279.84;;;4.06;85.42
43071;BME280;36278;47.952;21.714;2023-01-31T10:07:35;100284.97;;;4.26;81.89
43071;BME280;36278;47.952;21.714;2023-01-31T10:12:53;100284.63;;;4.67;80.92
43071;BME280;36278;47.952;21.714;2023-01-31T10:15:28;100288.41;;;4.61;80.95
43071;BME280;36278;47.952;21.714;2023-01-31T10:18:05;100293.28;;;4.52;80.60
43071;BME280;36278;47.952;21.714;2023-01-31T10:23:57;100299.81;;;4.77;80.76
43071;BME280;36278;47.952;21.714;2023-01-31T10:26:05;100301.84;;;4.72;81.05
43071;BME280;36278;47.952;21.714;2023-01-31T10:34:11;100297.31;;;4.41;81.06
43071;BME280;36278;47.952;21.714;2023-01-31T10:36:44;100304.16;;;4.27;81.54
43071;BME280;36278;47.952;21.714;2023-01-31T10:39:28;100304.00;;;4.30;82.00
43071;BME280;36278;47.952;21.714;2023-01-31T10:47:11;100289.19;;;4.81;81.10
43071;BME280;36278;47.952;21.714;2023-01-31T10:49:38;100289.72;;;5.03;79.69
43071;BME280;36278;47.952;21.714;2023-01-31T10:52:15;100290.06;;;4.79;79.67
43071;BME280;36278;47.952;21.714;2023-01-31T10:57:30;100279.31;;;5.01;75.36
43071;BME280;36278;47.952;21.714;2023-01-31T10:59:56;100284.91;;;5.11;75.92
43071;BME280;36278;47.952;21.714;2023-01-31T11:02:25;100286.34;;;5.01;78.77
43071;BME280;36278;47.952;21.714;2023-01-31T11:04:53;100264.69;;;5.13;78.46
43071;BME280;36278;47.952;21.714;2023-01-31T11:07:21;100252.31;;;5.31;76.20
43071;BME280;36278;47.952;21.714;2023-01-31T11:09:54;100266.81;;;5.38;74.94
43071;BME280;36278;47.952;21.714;2023-01-31T11:12:42;100262.13;;;5.43;73.55
43071;BME280;36278;47.952;21.714;2023-01-31T11:15:18;100262.75;;;5.48;75.16
43071;BME280;36278;47.952;21.714;2023-01-31T11:17:46;100263.69;;;5.31;73.51
43071;BME280;36278;47.952;21.714;2023-01-31T11:20:30;100269.88;;;5.46;75.62
43071;BME280;36278;47.952;21.714;2023-01-31T11:22:58;100274.00;;;5.34;74.07
43071;BME280;36278;47.952;21.714;2023-01-31T11:25:25;100269.59;;;5.51;72.82
43071;BME280;36278;47.952;21.714;2023-01-31T11:27:57;100260.22;;;5.47;72.56
43071;BME280;36278;47.952;21.714;2023-01-31T11:30:34;100278.50;;;5.64;71.34
43071;BME280;36278;47.952;21.714;2023-01-31T11:33:01;100260.63;;;6.16;69.71
43071;BME280;36278;47.952;21.714;2023-01-31T11:35:32;100270.59;;;6.56;68.98
43071;BME280;36278;47.952;21.714;2023-01-31T11:38:18;100281.50;;;6.64;69.69
43071;BME280;36278;47.952;21.714;2023-01-31T11:40:46;100276.75;;;6.85;68.23
43071;BME280;36278;47.952;21.714;2023-01-31T11:43:32;100274.03;;;6.42;68.07
43071;BME280;36278;47.952;21.714;2023-01-31T11:46:00;100273.16;;;6.71;67.95
43071;BME280;36278;47.952;21.714;2023-01-31T11:48:40;100280.97;;;6.87;66.29
43071;BME280;36278;47.952;21.714;2023-01-31T11:51:07;100273.25;;;6.98;65.54
43071;BME280;36278;47.952;21.714;2023-01-31T11:56:14;100273.13;;;7.70;63.42
43071;BME280;36278;47.952;21.714;2023-01-31T11:58:43;100269.03;;;7.66;63.24
43071;BME280;36278;47.952;21.714;2023-01-31T12:01:17;100273.28;;;7.81;63.01
43071;BME280;36278;47.952;21.714;2023-01-31T12:06:26;100273.81;;;8.13;60.68
43071;BME280;36278;47.952;21.714;2023-01-31T12:08:54;100266.84;;;8.12;61.28
43071;BME280;36278;47.952;21.714;2023-01-31T12:13:47;100275.19;;;7.38;62.66
43071;BME280;36278;47.952;21.714;2023-01-31T12:16:20;100276.44;;;6.89;64.10
43071;BME280;36278;47.952;21.714;2023-01-31T12:27:01;100280.34;;;7.39;63.61
43071;BME280;36278;47.952;21.714;2023-01-31T12:32:51;100278.78;;;7.22;63.25
43071;BME280;36278;47.952;21.714;2023-01-31T12:36:00;100280.94;;;7.16;64.10
43071;BME280;36278;47.952;21.714;2023-01-31T12:41:31;100282.09;;;6.97;64.08
43071;BME280;36278;47.952;21.714;2023-01-31T12:50:10;100282.84;;;6.41;66.20
43071;BME280;36278;47.952;21.714;2023-01-31T12:55:33;100300.56;;;6.67;67.70
43071;BME280;36278;47.952;21.714;2023-01-31T13:01:04;100293.81;;;6.63;67.45
43071;BME280;36278;47.952;21.714;2023-01-31T13:06:33;100288.38;;;6.81;67.68
43071;BME280;36278;47.952;21.714;2023-01-31T13:09:09;100291.69;;;6.84;66.60
43071;BME280;36278;47.952;21.714;2023-01-31T13:11:38;100291.66;;;6.70;66.97
43071;BME280;36278;47.952;21.714;2023-01-31T13:14:11;100290.63;;;6.72;66.92
43071;BME280;36278;47.952;21.714;2023-01-31T13:16:43;100285.16;;;6.75;67.50
43071;BME280;36278;47.952;21.714;2023-01-31T13:20:00;100293.25;;;6.72;66.65
43071;BME280;36278;47.952;21.714;2023-01-31T13:22:30;100283.88;;;6.68;66.67
43071;BME280;36278;47.952;21.714;2023-01-31T13:25:31;100287.91;;;6.74;67.17
43071;BME280;36278;47.952;21.714;2023-01-31T13:28:02;100282.63;;;6.74;66.76
43071;BME280;36278;47.952;21.714;2023-01-31T13:30:35;100287.63;;;6.79;67.10
43071;BME280;36278;47.952;21.714;2023-01-31T13:33:13;100296.84;;;6.71;67.80
43071;BME280;36278;47.952;21.714;2023-01-31T13:35:42;100291.75;;;6.68;66.39
43071;BME280;36278;47.952;21.714;2023-01-31T13:38:14;100295.91;;;6.28;66.42
43071;BME280;36278;47.952;21.714;2023-01-31T13:40:52;100289.59;;;6.31;68.74
43071;BME280;36278;47.952;21.714;2023-01-31T13:43:19;100299.13;;;6.47;65.49
43071;BME280;36278;47.952;21.714;2023-01-31T13:45:52;100283.91;;;6.38;67.87
43071;BME280;36278;47.952;21.714;2023-01-31T13:48:23;100294.53;;;6.51;65.66
43071;BME280;36278;47.952;21.714;2023-01-31T13:53:30;100287.22;;;6.56;64.76
43071;BME280;36278;47.952;21.714;2023-01-31T13:55:59;100293.75;;;6.79;63.22
43071;BME280;36278;47.952;21.714;2023-01-31T13:58:30;100290.16;;;6.80;64.07
43071;BME280;36278;47.952;21.714;2023-01-31T14:01:03;100289.97;;;6.83;64.52
43071;BME280;36278;47.952;21.714;2023-01-31T14:20:05;100288.97;;;6.86;65.71
43071;BME280;36278;47.952;21.714;2023-01-31T14:22:36;100291.59;;;6.86;65.65
43071;BME280;36278;47.952;21.714;2023-01-31T14:30:37;100295.53;;;6.93;63.93
43071;BME280;36278;47.952;21.714;2023-01-31T14:33:18;100296.38;;;6.79;64.27
43071;BME280;36278;47.952;21.714;2023-01-31T14:36:19;100303.13;;;6.69;63.95
43071;BME280;36278;47.952;21.714;2023-01-31T14:44:56;100308.91;;;6.45;64.13
43071;BME280;36278;47.952;21.714;2023-01-31T14:56:21;100312.34;;;6.62;65.85
43071;BME280;36278;47.952;21.714;2023-01-31T14:58:51;100315.47;;;6.38;65.01
43071;BME280;36278;47.952;21.714;2023-01-31T15:01:20;100312.78;;;6.24;66.29
43071;BME280;36278;47.952;21.714;2023-01-31T15:03:55;100318.81;;;6.10;66.56
43071;BME280;36278;47.952;21.714;2023-01-31T15:06:27;100325.41;;;6.03;67.07
43071;BME280;36278;47.952;21.714;2023-01-31T15:11:53;100325.97;;;5.93;67.07
43071;BME280;36278;47.952;21.714;2023-01-31T15:14:35;100327.84;;;5.90;67.34
43071;BME280;36278;47.952;21.714;2023-01-31T15:22:38;100322.34;;;5.63;68.93
43071;BME280;36278;47.952;21.714;2023-01-31T15:25:22;100322.44;;;5.62;69.84
43071;BME280;36278;47.952;21.714;2023-01-31T15:27:49;100326.22;;;5.56;68.82
43071;BME280;36278;47.952;21.714;2023-01-31T15:30:20;100338.00;;;5.49;69.49